createdAt,value
2023-04-26T00:02:00.569Z,98907.88
2023-04-26T00:04:28.962Z,98913.56
2023-04-26T00:06:56.651Z,98908.72
2023-04-26T00:09:24.418Z,98905.56
2023-04-26T00:11:52.085Z,98907.19
2023-04-26T00:14:19.247Z,98902.34
2023-04-26T00:16:46.294Z,98893.31
2023-04-26T00:19:13.697Z,98888.63
2023-04-26T00:21:40.796Z,98883.94
2023-04-26T00:24:08.327Z,98881.91
2023-04-26T00:26:35.740Z,98880.19
2023-04-26T00:29:04.368Z,98879.13
2023-04-26T00:31:31.872Z,98868.19
2023-04-26T00:33:59.246Z,98866.78
2023-04-26T00:36:27.725Z,98865.72
2023-04-26T00:38:54.925Z,98863.53
2023-04-26T00:41:22.490Z,98860.25
2023-04-26T00:43:49.675Z,98867.56
2023-04-26T00:46:17.150Z,98869.16
2023-04-26T00:48:44.842Z,98865.81
2023-04-26T00:51:13.446Z,98875.59
2023-04-26T00:53:41.079Z,98868.63
2023-04-26T00:56:09.562Z,98867.31
2023-04-26T00:58:37.726Z,98856.72
2023-04-26T01:01:05.253Z,98855.94
2023-04-26T01:03:33.442Z,98858.34
2023-04-26T01:06:01.098Z,98859.09
2023-04-26T01:08:28.559Z,98850.81
2023-04-26T01:10:58.125Z,98846.22
2023-04-26T01:13:25.892Z,98837.63
2023-04-26T01:15:53.028Z,98832.94
2023-04-26T01:18:20.028Z,98833.59
2023-04-26T01:20:48.120Z,98833.59
2023-04-26T01:23:16.084Z,98823.00
2023-04-26T01:25:43.009Z,98812.88
2023-04-26T01:28:10.108Z,98815.66
2023-04-26T01:30:37.448Z,98817.31
2023-04-26T01:33:04.514Z,98813.81
2023-04-26T01:35:32.169Z,98810.56
2023-04-26T01:37:59.184Z,98809.94
2023-04-26T01:40:28.268Z,98799.50
2023-04-26T01:42:55.775Z,98791.16
2023-04-26T01:45:22.939Z,98793.44
2023-04-26T01:48:08.684Z,98794.53
2023-04-26T01:50:36.051Z,98795.00
2023-04-26T01:53:03.520Z,98791.06
2023-04-26T01:55:30.887Z,98795.34
2023-04-26T01:57:58.211Z,98786.63
2023-04-26T02:00:29.710Z,98782.84
2023-04-26T02:02:57.290Z,98772.34
2023-04-26T02:05:25.370Z,98777.44
2023-04-26T02:07:52.608Z,98772.63
2023-04-26T02:10:20.037Z,98772.53
2023-04-26T02:12:47.881Z,98767.72
2023-04-26T02:15:15.078Z,98766.41
2023-04-26T02:17:42.674Z,98759.66
2023-04-26T02:20:11.079Z,98764.13
2023-04-26T02:22:38.267Z,98755.31
2023-04-26T02:25:06.796Z,98747.63
2023-04-26T02:27:34.203Z,98748.47
2023-04-26T02:30:01.646Z,98755.91
2023-04-26T02:32:29.617Z,98749.38
2023-04-26T02:34:58.214Z,98738.41
2023-04-26T02:37:26.807Z,98740.56
2023-04-26T02:39:54.298Z,98742.59
2023-04-26T02:42:21.465Z,98734.97
2023-04-26T02:44:48.991Z,98731.50
2023-04-26T02:47:16.932Z,98730.84
2023-04-26T02:49:44.100Z,98727.97
2023-04-26T02:52:11.450Z,98734.16
2023-04-26T02:54:38.589Z,98733.50
2023-04-26T02:57:05.993Z,98726.78
2023-04-26T02:59:33.288Z,98714.78
2023-04-26T03:02:00.496Z,98715.91
2023-04-26T03:04:28.527Z,98721.53
2023-04-26T03:06:55.870Z,98715.41
2023-04-26T03:09:23.475Z,98723.38
2023-04-26T03:11:52.413Z,98726.47
2023-04-26T03:14:24.379Z,98716.47
2023-04-26T03:16:51.906Z,98713.09
2023-04-26T03:19:19.534Z,98719.31
2023-04-26T03:21:47.824Z,98722.09
2023-04-26T03:24:15.158Z,98716.63
2023-04-26T03:26:42.224Z,98712.34
2023-04-26T03:29:10.171Z,98710.59
2023-04-26T03:31:38.281Z,98707.19
2023-04-26T03:34:06.284Z,98709.41
2023-04-26T03:36:33.670Z,98710.81
2023-04-26T03:39:02.365Z,98706.84
2023-04-26T03:41:29.987Z,98712.22
2023-04-26T03:44:00.607Z,98704.06
2023-04-26T03:46:28.006Z,98711.75
2023-04-26T03:48:55.439Z,98702.44
2023-04-26T03:51:22.766Z,98705.06
2023-04-26T03:53:50.726Z,98700.22
2023-04-26T03:56:17.920Z,98698.41
2023-04-26T03:58:45.319Z,98692.88
2023-04-26T04:01:12.817Z,98695.75
2023-04-26T04:03:41.556Z,98691.41
2023-04-26T04:06:09.448Z,98683.44
2023-04-26T04:08:36.800Z,98686.22
2023-04-26T04:11:04.319Z,98684.84
2023-04-26T04:13:34.213Z,98685.28
2023-04-26T04:16:01.693Z,98684.84
2023-04-26T04:18:29.421Z,98689.78
2023-04-26T04:20:56.810Z,98686.34
2023-04-26T04:23:25.034Z,98683.13
2023-04-26T04:25:53.397Z,98669.41
2023-04-26T04:28:22.584Z,98666.56
2023-04-26T04:30:50.536Z,98664.53
2023-04-26T04:33:18.949Z,98668.88
2023-04-26T04:35:46.869Z,98657.03
2023-04-26T04:38:14.259Z,98660.53
2023-04-26T04:40:41.951Z,98656.59
2023-04-26T04:43:09.113Z,98650.84
2023-04-26T04:45:36.929Z,98653.44
2023-04-26T04:48:05.379Z,98653.41
2023-04-26T04:50:33.015Z,98650.41
2023-04-26T04:53:00.559Z,98642.31
2023-04-26T04:55:28.511Z,98648.41
2023-04-26T04:57:56.082Z,98649.97
2023-04-26T05:00:23.750Z,98645.38
2023-04-26T05:03:01.824Z,98647.03
2023-04-26T05:05:31.068Z,98633.88
2023-04-26T05:07:58.770Z,98641.84
2023-04-26T05:10:27.113Z,98631.50
2023-04-26T05:12:54.257Z,98636.41
2023-04-26T05:15:22.103Z,98624.22
2023-04-26T05:17:49.655Z,98635.66
2023-04-26T05:20:19.914Z,98625.84
2023-04-26T05:22:47.373Z,98621.09
2023-04-26T05:25:14.890Z,98612.81
2023-04-26T05:27:45.361Z,98615.78
2023-04-26T05:30:20.828Z,98616.88
2023-04-26T05:33:06.687Z,98607.69
2023-04-26T05:35:44.663Z,98605.78
2023-04-26T05:38:12.158Z,98614.69
2023-04-26T05:40:39.118Z,98606.63
2023-04-26T05:43:06.607Z,98608.66
2023-04-26T05:45:35.792Z,98605.34
2023-04-26T05:48:03.332Z,98596.19
2023-04-26T05:50:31.035Z,98607.56
2023-04-26T05:52:58.887Z,98595.03
2023-04-26T05:55:26.556Z,98595.53
2023-04-26T05:57:53.650Z,98582.34
2023-04-26T06:00:23.278Z,98582.19
2023-04-26T06:02:51.535Z,98577.94
2023-04-26T06:05:19.059Z,98573.22
2023-04-26T06:07:47.418Z,98573.06
2023-04-26T06:10:14.998Z,98566.84
2023-04-26T06:12:42.665Z,98568.00
2023-04-26T06:15:10.757Z,98556.13
2023-04-26T06:17:41.808Z,98551.22
2023-04-26T06:20:10.370Z,98545.78
2023-04-26T06:22:38.199Z,98547.25
2023-04-26T06:25:06.598Z,98541.00
2023-04-26T06:27:36.324Z,98548.81
2023-04-26T06:30:04.077Z,98540.91
2023-04-26T06:32:33.686Z,98543.25
2023-04-26T06:35:00.961Z,98543.56
2023-04-26T06:37:28.602Z,98542.28
2023-04-26T06:39:55.999Z,98540.91
2023-04-26T06:42:23.420Z,98543.66
2023-04-26T06:45:14.211Z,98540.22
2023-04-26T06:47:41.493Z,98545.81
2023-04-26T06:50:09.447Z,98553.41
2023-04-26T06:52:37.160Z,98547.44
2023-04-26T06:55:04.515Z,98555.09
2023-04-26T06:57:33.506Z,98557.22
2023-04-26T07:00:00.957Z,98568.44
2023-04-26T07:02:28.646Z,98580.34
2023-04-26T07:04:56.620Z,98595.28
2023-04-26T07:07:24.371Z,98597.16
2023-04-26T07:09:52.629Z,98608.75
2023-04-26T07:12:19.881Z,98619.94
2023-04-26T07:14:47.178Z,98624.16
2023-04-26T07:17:14.658Z,98630.34
2023-04-26T07:19:41.792Z,98630.47
2023-04-26T07:22:09.149Z,98639.03
2023-04-26T07:24:36.713Z,98645.53
2023-04-26T07:27:04.160Z,98653.88
2023-04-26T07:29:31.453Z,98650.44
2023-04-26T07:31:58.678Z,98657.22
2023-04-26T07:34:26.387Z,98663.44
2023-04-26T07:36:54.097Z,98657.25
2023-04-26T07:39:21.123Z,98660.44
2023-04-26T07:41:48.778Z,98660.78
2023-04-26T07:44:15.856Z,98658.19
2023-04-26T07:46:43.217Z,98659.03
2023-04-26T07:49:10.594Z,98656.69
2023-04-26T07:51:37.983Z,98652.84
2023-04-26T07:54:05.151Z,98655.34
2023-04-26T07:56:32.587Z,98658.72
2023-04-26T07:58:59.524Z,98661.84
2023-04-26T08:01:26.766Z,98647.41
2023-04-26T08:03:55.430Z,98662.47
2023-04-26T08:06:23.110Z,98652.59
2023-04-26T08:08:51.141Z,98654.09
2023-04-26T08:11:18.309Z,98649.81
2023-04-26T08:13:46.115Z,98652.69
2023-04-26T08:16:13.222Z,98648.34
2023-04-26T08:18:40.670Z,98639.41
2023-04-26T08:21:07.690Z,98633.38
2023-04-26T08:23:38.721Z,98623.66
2023-04-26T08:26:06.125Z,98632.31
2023-04-26T08:28:33.137Z,98628.94
2023-04-26T08:31:00.448Z,98633.09
2023-04-26T08:33:27.826Z,98634.16
2023-04-26T08:35:55.733Z,98622.00
2023-04-26T08:38:23.178Z,98633.16
2023-04-26T08:40:50.550Z,98624.00
2023-04-26T08:43:18.145Z,98627.09
2023-04-26T08:45:48.080Z,98648.41
2023-04-26T08:48:18.459Z,98651.72
2023-04-26T08:50:49.042Z,98658.72
2023-04-26T08:53:20.169Z,98650.78
2023-04-26T08:55:50.546Z,98655.09
2023-04-26T08:58:18.411Z,98661.97
2023-04-26T09:00:48.572Z,98665.81
2023-04-26T09:03:16.379Z,98662.53
2023-04-26T09:05:44.034Z,98661.38
2023-04-26T09:08:16.097Z,98662.72
2023-04-26T09:10:43.559Z,98666.22
2023-04-26T09:13:11.684Z,98659.66
2023-04-26T09:15:38.837Z,98666.38
2023-04-26T09:18:19.886Z,98667.38
2023-04-26T09:21:01.002Z,98668.56
2023-04-26T09:23:28.776Z,98667.16
2023-04-26T09:25:55.788Z,98669.19
2023-04-26T09:28:23.612Z,98675.75
2023-04-26T09:30:51.238Z,98665.38
2023-04-26T09:33:19.160Z,98661.03
2023-04-26T09:35:46.903Z,98674.00
2023-04-26T09:38:17.724Z,98661.56
2023-04-26T09:40:49.445Z,98668.16
2023-04-26T09:43:20.752Z,98673.31
2023-04-26T09:45:52.072Z,98674.19
2023-04-26T09:48:25.535Z,98683.00
2023-04-26T09:50:54.213Z,98686.53
2023-04-26T09:53:36.672Z,98692.50
2023-04-26T09:56:18.662Z,98689.19
2023-04-26T09:58:50.085Z,98694.00
2023-04-26T10:01:18.798Z,98690.78
2023-04-26T10:03:46.609Z,98691.84
2023-04-26T10:06:13.918Z,98691.72
2023-04-26T10:08:41.603Z,98701.09
2023-04-26T10:11:11.091Z,98695.69
2023-04-26T10:13:40.460Z,98703.16
2023-04-26T10:16:09.490Z,98706.53
2023-04-26T10:18:37.286Z,98711.44
2023-04-26T10:21:17.893Z,98718.66
2023-04-26T10:23:45.729Z,98726.91
2023-04-26T10:26:51.642Z,98748.06
2023-04-26T10:29:19.978Z,98768.13
2023-04-26T10:32:03.642Z,98772.47
2023-04-26T10:34:33.947Z,98773.41
2023-04-26T10:37:17.939Z,98784.75
2023-04-26T10:39:46.879Z,98787.53
2023-04-26T10:42:25.877Z,98795.38
2023-04-26T10:44:59.968Z,98796.72
2023-04-26T10:47:32.015Z,98799.78
2023-04-26T10:50:09.760Z,98799.97
2023-04-26T10:52:56.523Z,98799.13
2023-04-26T10:55:42.401Z,98802.75
2023-04-26T10:58:32.921Z,98806.03
2023-04-26T11:01:24.306Z,98804.91
2023-04-26T11:03:57.993Z,98823.00
2023-04-26T11:06:26.560Z,98825.84
2023-04-26T11:08:54.856Z,98827.53
2023-04-26T11:11:25.923Z,98828.09
2023-04-26T11:13:53.337Z,98837.72
2023-04-26T11:16:20.998Z,98833.25
2023-04-26T11:18:48.116Z,98847.09
2023-04-26T11:21:18.893Z,98843.47
2023-04-26T11:23:56.115Z,98852.75
2023-04-26T11:26:24.489Z,98852.47
2023-04-26T11:28:52.034Z,98849.69
2023-04-26T11:31:19.451Z,98849.41
2023-04-26T11:33:49.874Z,98845.78
2023-04-26T11:36:19.348Z,98847.94
2023-04-26T11:38:47.721Z,98849.44
2023-04-26T11:41:14.991Z,98841.88
2023-04-26T11:43:42.479Z,98850.88
2023-04-26T11:46:10.130Z,98851.69
2023-04-26T11:48:38.284Z,98858.69
2023-04-26T11:51:06.806Z,98863.59
2023-04-26T11:53:43.561Z,98869.22
2023-04-26T11:56:20.215Z,98885.97
2023-04-26T11:58:48.831Z,98882.38
2023-04-26T12:01:23.063Z,98889.78
2023-04-26T12:03:54.805Z,98892.16
2023-04-26T12:06:52.335Z,98895.75
2023-04-26T12:09:31.722Z,98904.63
2023-04-26T12:12:02.313Z,98898.78
2023-04-26T12:14:33.423Z,98907.00
2023-04-26T12:17:02.852Z,98911.09
2023-04-26T12:19:36.970Z,98910.63
2023-04-26T12:22:04.700Z,98911.84
2023-04-26T12:24:38.221Z,98917.56
2023-04-26T12:27:09.181Z,98925.78
2023-04-26T12:29:36.591Z,98927.16
2023-04-26T12:32:04.397Z,98928.00
2023-04-26T12:34:31.728Z,98947.94
2023-04-26T12:36:58.731Z,98945.84
2023-04-26T12:39:26.338Z,98947.03
2023-04-26T12:41:55.117Z,98956.06
2023-04-26T12:44:22.798Z,98961.13
2023-04-26T12:46:51.456Z,98971.22
2023-04-26T12:49:18.883Z,98969.34
2023-04-26T12:51:49.308Z,98983.59
2023-04-26T12:54:16.736Z,98986.06
2023-04-26T12:56:45.084Z,98983.75
2023-04-26T12:59:12.143Z,98985.53
2023-04-26T13:01:39.431Z,98987.19
2023-04-26T13:04:06.874Z,98997.56
2023-04-26T13:06:34.608Z,98991.22
2023-04-26T13:09:02.354Z,98991.47
2023-04-26T13:11:29.712Z,99006.13
2023-04-26T13:13:56.941Z,99005.19
2023-04-26T13:16:24.320Z,99014.59
2023-04-26T13:18:51.960Z,99008.81
2023-04-26T13:21:19.411Z,99011.50
2023-04-26T13:23:47.119Z,99015.22
2023-04-26T13:26:17.234Z,99024.56
2023-04-26T13:28:44.595Z,99035.09
2023-04-26T13:31:11.785Z,99041.63
2023-04-26T13:33:39.000Z,99047.47
2023-04-26T13:36:07.061Z,99055.00
2023-04-26T13:38:34.333Z,99059.31
2023-04-26T13:41:02.428Z,99060.16
2023-04-26T13:43:29.815Z,99054.63
2023-04-26T13:45:57.225Z,99066.69
2023-04-26T13:48:24.595Z,99061.00
2023-04-26T13:50:51.849Z,99059.66
2023-04-26T13:53:22.285Z,99074.16
2023-04-26T13:55:49.664Z,99079.47
2023-04-26T13:58:17.358Z,99077.63
2023-04-26T14:00:45.166Z,99088.81
2023-04-26T14:03:12.560Z,99095.44
2023-04-26T14:05:40.067Z,99087.94
2023-04-26T14:08:07.982Z,99095.59
2023-04-26T14:10:36.186Z,99095.06
2023-04-26T14:13:03.612Z,99106.06
2023-04-26T14:15:30.946Z,99096.06
2023-04-26T14:17:58.129Z,99107.38
2023-04-26T14:20:25.786Z,99105.34
2023-04-26T14:22:52.874Z,99111.00
2023-04-26T14:25:20.338Z,99115.81
2023-04-26T14:27:48.318Z,99113.47
2023-04-26T14:30:16.749Z,99120.75
2023-04-26T14:32:43.725Z,99127.41
2023-04-26T14:35:11.275Z,99126.06
2023-04-26T14:37:38.739Z,99132.56
2023-04-26T14:40:07.959Z,99135.53
2023-04-26T14:42:35.667Z,99138.66
2023-04-26T14:45:03.274Z,99146.13
2023-04-26T14:47:31.782Z,99142.94
2023-04-26T14:49:58.835Z,99150.56
2023-04-26T14:52:28.035Z,99149.03
2023-04-26T14:54:55.208Z,99148.38
2023-04-26T14:57:22.738Z,99151.66
2023-04-26T14:59:49.865Z,99158.31
2023-04-26T15:02:17.356Z,99172.91
2023-04-26T15:04:44.593Z,99180.38
2023-04-26T15:07:20.967Z,99185.84
2023-04-26T15:09:56.274Z,99186.00
2023-04-26T15:12:23.839Z,99200.47
2023-04-26T15:14:51.281Z,99196.28
2023-04-26T15:17:18.600Z,99202.66
2023-04-26T15:19:46.276Z,99209.81
2023-04-26T15:22:13.377Z,99204.66
2023-04-26T15:24:40.488Z,99213.22
2023-04-26T15:27:08.252Z,99217.34
2023-04-26T15:29:35.726Z,99232.78
2023-04-26T15:32:03.307Z,99232.94
2023-04-26T15:34:31.026Z,99233.78
2023-04-26T15:37:00.298Z,99233.94
2023-04-26T15:39:27.661Z,99234.94
2023-04-26T15:41:54.929Z,99235.50
2023-04-26T15:44:22.263Z,99241.31
2023-04-26T15:46:49.643Z,99231.41
2023-04-26T15:49:17.401Z,99239.53
2023-04-26T15:51:44.763Z,99240.00
2023-04-26T15:54:11.883Z,99247.13
2023-04-26T15:56:38.955Z,99244.78
2023-04-26T15:59:06.568Z,99253.91
2023-04-26T16:01:34.105Z,99248.59
2023-04-26T16:04:01.877Z,99254.88
2023-04-26T16:06:29.397Z,99265.81
2023-04-26T16:08:56.721Z,99258.28
2023-04-26T16:11:23.869Z,99261.25
2023-04-26T16:13:51.688Z,99266.03
2023-04-26T16:16:19.262Z,99255.53
2023-04-26T16:18:46.857Z,99254.16
2023-04-26T16:21:14.313Z,99257.63
2023-04-26T16:23:41.811Z,99265.75
2023-04-26T16:26:09.292Z,99264.41
2023-04-26T16:28:36.503Z,99275.34
2023-04-26T16:31:04.080Z,99276.47
2023-04-26T16:33:31.508Z,99276.78
2023-04-26T16:35:58.571Z,99276.78
2023-04-26T16:38:26.258Z,99286.00
2023-04-26T16:40:57.553Z,99288.94
2023-04-26T16:43:27.162Z,99282.81
2023-04-26T16:46:02.348Z,99283.25
2023-04-26T16:48:38.199Z,99283.81
2023-04-26T16:51:07.649Z,99282.72
2023-04-26T16:53:35.973Z,99292.53
2023-04-26T16:56:03.899Z,99293.97
2023-04-26T16:58:31.204Z,99288.22
2023-04-26T17:00:58.613Z,99285.84
2023-04-26T17:03:26.452Z,99291.31
2023-04-26T17:05:54.015Z,99301.53
2023-04-26T17:08:21.660Z,99305.03
2023-04-26T17:10:49.161Z,99301.53
2023-04-26T17:13:16.276Z,99300.81
2023-04-26T17:15:43.786Z,99302.78
2023-04-26T17:18:11.348Z,99307.25
2023-04-26T17:20:38.888Z,99310.06
2023-04-26T17:23:07.594Z,99307.84
2023-04-26T17:25:34.797Z,99303.94
2023-04-26T17:28:02.056Z,99300.72
2023-04-26T17:30:29.429Z,99305.34
2023-04-26T17:32:56.846Z,99309.97
2023-04-26T17:35:24.476Z,99313.88
2023-04-26T17:37:51.671Z,99308.16
2023-04-26T17:40:19.341Z,99317.09
2023-04-26T17:42:46.905Z,99321.84
2023-04-26T17:45:14.891Z,99327.44
2023-04-26T17:47:42.678Z,99327.72
2023-04-26T17:50:10.504Z,99328.00
2023-04-26T17:52:38.108Z,99346.59
2023-04-26T17:55:07.851Z,99336.22
2023-04-26T17:57:35.316Z,99336.22
2023-04-26T18:00:03.353Z,99343.34
2023-04-26T18:02:37.967Z,99344.34
2023-04-26T18:05:06.616Z,99334.00
2023-04-26T18:07:34.321Z,99348.41
2023-04-26T18:10:01.708Z,99340.56
2023-04-26T18:12:30.567Z,99342.38
2023-04-26T18:14:57.867Z,99346.03
2023-04-26T18:17:25.376Z,99354.28
2023-04-26T18:19:52.896Z,99357.16
2023-04-26T18:22:20.506Z,99361.81
2023-04-26T18:24:48.074Z,99359.41
2023-04-26T18:27:15.182Z,99363.50
2023-04-26T18:29:43.223Z,99372.97
2023-04-26T18:32:10.643Z,99371.31
2023-04-26T18:34:37.811Z,99368.78
2023-04-26T18:37:05.940Z,99362.22
2023-04-26T18:39:33.332Z,99377.59
2023-04-26T18:42:00.860Z,99378.44
2023-04-26T18:44:28.423Z,99383.06
2023-04-26T18:46:56.310Z,99379.69
2023-04-26T18:49:24.130Z,99371.03
2023-04-26T18:51:51.555Z,99379.41
2023-04-26T18:54:18.717Z,99388.50
2023-04-26T18:56:45.825Z,99392.81
2023-04-26T18:59:13.472Z,99389.47
2023-04-26T19:01:41.433Z,99391.56
2023-04-26T19:04:09.331Z,99395.31
2023-04-26T19:06:36.650Z,99391.25
2023-04-26T19:09:05.789Z,99396.56
2023-04-26T19:11:32.867Z,99394.88
2023-04-26T19:14:00.547Z,99392.22
2023-04-26T19:16:27.794Z,99394.75
2023-04-26T19:18:55.089Z,99395.44
2023-04-26T19:21:22.576Z,99398.09
2023-04-26T19:23:49.771Z,99397.41
2023-04-26T19:26:17.949Z,99390.00
2023-04-26T19:28:45.569Z,99390.84
2023-04-26T19:31:12.701Z,99385.91
2023-04-26T19:33:40.239Z,99398.34
2023-04-26T19:36:09.657Z,99395.97
2023-04-26T19:38:36.676Z,99378.66
2023-04-26T19:41:04.307Z,99393.72
2023-04-26T19:43:31.551Z,99388.97
2023-04-26T19:45:58.876Z,99391.16
2023-04-26T19:48:26.192Z,99398.84
2023-04-26T19:50:53.536Z,99395.03
2023-04-26T19:53:20.920Z,99402.56
2023-04-26T19:55:48.457Z,99398.63
2023-04-26T19:58:16.098Z,99408.78
2023-04-26T20:00:43.798Z,99399.69
2023-04-26T20:03:11.718Z,99392.28
2023-04-26T20:05:39.098Z,99399.78
2023-04-26T20:08:06.196Z,99404.50
2023-04-26T20:10:34.360Z,99406.72
2023-04-26T20:13:02.336Z,99399.97
2023-04-26T20:15:31.536Z,99406.50
2023-04-26T20:18:01.936Z,99411.94
2023-04-26T20:20:29.032Z,99412.09
2023-04-26T20:22:56.337Z,99414.88
2023-04-26T20:25:23.393Z,99397.69
2023-04-26T20:27:50.902Z,99408.28
2023-04-26T20:30:17.861Z,99417.16
2023-04-26T20:32:45.515Z,99403.94
2023-04-26T20:35:13.416Z,99409.34
2023-04-26T20:37:40.396Z,99419.81
2023-04-26T20:40:09.210Z,99412.47
2023-04-26T20:42:37.533Z,99409.13
2023-04-26T20:45:06.028Z,99412.72
2023-04-26T20:47:33.445Z,99422.38
2023-04-26T20:50:00.620Z,99414.41
2023-04-26T20:52:28.183Z,99417.78
2023-04-26T20:54:57.065Z,99420.44
2023-04-26T20:57:24.311Z,99411.63
2023-04-26T20:59:51.590Z,99416.94
2023-04-26T21:02:19.316Z,99414.28
2023-04-26T21:04:46.948Z,99418.63
2023-04-26T21:07:14.419Z,99420.28
2023-04-26T21:09:42.232Z,99418.47
2023-04-26T21:12:09.291Z,99420.16
2023-04-26T21:14:36.825Z,99410.41
2023-04-26T21:17:05.626Z,99406.91
2023-04-26T21:19:32.798Z,99398.97
2023-04-26T21:22:00.030Z,99405.09
2023-04-26T21:24:27.187Z,99410.28
2023-04-26T21:26:54.778Z,99407.34
2023-04-26T21:29:22.150Z,99409.72
2023-04-26T21:31:49.536Z,99413.97
2023-04-26T21:34:17.159Z,99414.91
2023-04-26T21:36:44.568Z,99408.91
2023-04-26T21:39:12.700Z,99404.84
2023-04-26T21:41:40.393Z,99407.34
2023-04-26T21:44:07.916Z,99416.41
2023-04-26T21:46:35.030Z,99411.50
2023-04-26T21:49:02.416Z,99412.63
2023-04-26T21:51:29.548Z,99409.13
2023-04-26T21:53:57.090Z,99404.19
2023-04-26T21:56:25.117Z,99405.38
2023-04-26T21:58:52.769Z,99401.19
2023-04-26T22:01:19.822Z,99403.56
2023-04-26T22:03:47.172Z,99391.53
2023-04-26T22:06:14.838Z,99397.41
2023-04-26T22:08:42.344Z,99409.84
2023-04-26T22:11:09.461Z,99412.47
2023-04-26T22:13:37.130Z,99415.13
2023-04-26T22:16:04.663Z,99428.38
2023-04-26T22:18:32.162Z,99419.59
2023-04-26T22:20:59.773Z,99418.63
2023-04-26T22:23:26.818Z,99412.22
2023-04-26T22:25:54.186Z,99429.66
2023-04-26T22:28:21.865Z,99425.06
2023-04-26T22:30:49.103Z,99430.69
2023-04-26T22:33:16.382Z,99434.06
2023-04-26T22:35:44.584Z,99431.72
2023-04-26T22:38:11.602Z,99433.97
2023-04-26T22:40:38.885Z,99435.00
2023-04-26T22:43:06.340Z,99435.91
2023-04-26T22:45:33.460Z,99439.72
2023-04-26T22:48:01.049Z,99429.75
2023-04-26T22:50:28.589Z,99438.41
2023-04-26T22:52:56.229Z,99444.19
2023-04-26T22:55:23.411Z,99443.09
2023-04-26T22:57:50.699Z,99448.88
2023-04-26T23:00:19.596Z,99439.09
2023-04-26T23:02:47.256Z,99443.56
2023-04-26T23:05:14.822Z,99444.28
2023-04-26T23:07:42.090Z,99442.16
2023-04-26T23:10:09.797Z,99439.47
2023-04-26T23:12:36.894Z,99436.31
2023-04-26T23:15:05.080Z,99438.00
2023-04-26T23:17:33.750Z,99432.88
2023-04-26T23:20:01.079Z,99438.56
2023-04-26T23:22:28.756Z,99441.59
2023-04-26T23:24:56.035Z,99447.75
2023-04-26T23:27:26.273Z,99446.13
2023-04-26T23:29:53.756Z,99440.94
2023-04-26T23:32:21.415Z,99443.19
2023-04-26T23:34:48.493Z,99447.06
2023-04-26T23:37:15.921Z,99441.50
2023-04-26T23:39:43.145Z,99446.13
2023-04-26T23:42:10.398Z,99445.16
2023-04-26T23:44:37.436Z,99445.13
2023-04-26T23:47:04.647Z,99447.03
2023-04-26T23:49:32.304Z,99440.97
2023-04-26T23:51:59.378Z,99431.94
2023-04-26T23:54:26.793Z,99443.81
2023-04-26T23:56:53.919Z,99442.16
2023-04-26T23:59:21.162Z,99448.56
